sensor_id;sensor_type;location;lat;lon;timestamp;temperature;humidity
9847;DHT22;68671;50.084;8.794;2023-12-28T00:00:18;12.20;99.90
9847;DHT22;68671;50.084;8.794;2023-12-28T00:02:47;12.20;99.90
9847;DHT22;68671;50.084;8.794;2023-12-28T00:05:14;12.20;99.90
9847;DHT22;68671;50.084;8.794;2023-12-28T00:07:42;12.20;99.90
9847;DHT22;68671;50.084;8.794;2023-12-28T00:10:09;12.10;99.90
9847;DHT22;68671;50.084;8.794;2023-12-28T00:12:36;12.10;99.90
9847;DHT22;68671;50.084;8.794;2023-12-28T00:15:04;12.10;99.90
9847;DHT22;68671;50.084;8.794;2023-12-28T00:17:31;12.10;99.90
9847;DHT22;68671;50.084;8.794;2023-12-28T00:20:00;12.20;99.90
9847;DHT22;68671;50.084;8.794;2023-12-28T00:22:27;12.20;99.90
9847;DHT22;68671;50.084;8.794;2023-12-28T00:24:57;12.20;99.90
9847;DHT22;68671;50.084;8.794;2023-12-28T00:27:24;12.20;99.90
9847;DHT22;68671;50.084;8.794;2023-12-28T00:29:51;12.20;99.90
9847;DHT22;68671;50.084;8.794;2023-12-28T00:32:18;12.20;99.90
9847;DHT22;68671;50.084;8.794;2023-12-28T00:34:45;12.20;99.90
9847;DHT22;68671;50.084;8.794;2023-12-28T00:37:13;12.20;99.90
9847;DHT22;68671;50.084;8.794;2023-12-28T00:39:43;12.20;99.90
9847;DHT22;68671;50.084;8.794;2023-12-28T00:42:14;12.20;99.90
9847;DHT22;68671;50.084;8.794;2023-12-28T00:44:43;12.30;99.90
9847;DHT22;68671;50.084;8.794;2023-12-28T00:47:13;12.30;99.90
9847;DHT22;68671;50.084;8.794;2023-12-28T00:49:40;12.30;99.90
9847;DHT22;68671;50.084;8.794;2023-12-28T00:52:07;12.30;99.90
9847;DHT22;68671;50.084;8.794;2023-12-28T00:54:39;12.20;99.90
9847;DHT22;68671;50.084;8.794;2023-12-28T00:57:06;12.30;99.90
9847;DHT22;68671;50.084;8.794;2023-12-28T00:59:32;12.30;99.90
9847;DHT22;68671;50.084;8.794;2023-12-28T01:01:59;12.30;99.90
9847;DHT22;68671;50.084;8.794;2023-12-28T01:04:26;12.30;99.90
9847;DHT22;68671;50.084;8.794;2023-12-28T01:06:54;12.30;99.90
9847;DHT22;68671;50.084;8.794;2023-12-28T01:09:24;12.40;99.90
9847;DHT22;68671;50.084;8.794;2023-12-28T01:11:52;12.30;99.90
9847;DHT22;68671;50.084;8.794;2023-12-28T01:14:19;12.30;99.90
9847;DHT22;68671;50.084;8.794;2023-12-28T01:16:46;12.40;99.90
9847;DHT22;68671;50.084;8.794;2023-12-28T01:19:13;12.40;99.90
9847;DHT22;68671;50.084;8.794;2023-12-28T01:21:40;12.30;99.90
9847;DHT22;68671;50.084;8.794;2023-12-28T01:24:06;12.30;99.90
9847;DHT22;68671;50.084;8.794;2023-12-28T01:26:33;12.30;99.90
9847;DHT22;68671;50.084;8.794;2023-12-28T01:29:02;12.30;99.90
9847;DHT22;68671;50.084;8.794;2023-12-28T01:31:29;12.20;99.90
9847;DHT22;68671;50.084;8.794;2023-12-28T01:33:56;12.30;99.90
9847;DHT22;68671;50.084;8.794;2023-12-28T01:36:23;12.30;99.90
9847;DHT22;68671;50.084;8.794;2023-12-28T01:38:50;12.30;99.90
9847;DHT22;68671;50.084;8.794;2023-12-28T01:41:17;12.30;99.90
9847;DHT22;68671;50.084;8.794;2023-12-28T01:43:44;12.30;99.90
9847;DHT22;68671;50.084;8.794;2023-12-28T01:46:15;12.30;99.90
9847;DHT22;68671;50.084;8.794;2023-12-28T01:48:44;12.30;99.90
9847;DHT22;68671;50.084;8.794;2023-12-28T01:51:12;12.40;99.90
9847;DHT22;68671;50.084;8.794;2023-12-28T01:53:39;12.40;99.90
9847;DHT22;68671;50.084;8.794;2023-12-28T01:56:06;12.40;99.90
9847;DHT22;68671;50.084;8.794;2023-12-28T01:58:35;12.40;99.90
9847;DHT22;68671;50.084;8.794;2023-12-28T02:01:04;12.40;99.90
9847;DHT22;68671;50.084;8.794;2023-12-28T02:03:33;12.40;99.90
9847;DHT22;68671;50.084;8.794;2023-12-28T02:06:00;12.40;99.90
9847;DHT22;68671;50.084;8.794;2023-12-28T02:08:28;12.40;99.90
9847;DHT22;68671;50.084;8.794;2023-12-28T02:10:55;12.40;99.90
9847;DHT22;68671;50.084;8.794;2023-12-28T02:13:22;12.40;99.90
9847;DHT22;68671;50.084;8.794;2023-12-28T02:15:52;12.50;99.90
9847;DHT22;68671;50.084;8.794;2023-12-28T02:18:25;12.50;99.90
9847;DHT22;68671;50.084;8.794;2023-12-28T02:20:57;12.50;99.90
9847;DHT22;68671;50.084;8.794;2023-12-28T02:23:27;12.50;99.90
9847;DHT22;68671;50.084;8.794;2023-12-28T02:25:55;12.50;99.90
9847;DHT22;68671;50.084;8.794;2023-12-28T02:28:22;12.40;99.90
9847;DHT22;68671;50.084;8.794;2023-12-28T02:30:49;12.50;99.90
9847;DHT22;68671;50.084;8.794;2023-12-28T02:33:21;12.50;99.90
9847;DHT22;68671;50.084;8.794;2023-12-28T02:35:55;12.50;99.90
9847;DHT22;68671;50.084;8.794;2023-12-28T02:38:24;12.50;99.90
9847;DHT22;68671;50.084;8.794;2023-12-28T02:40:52;12.50;99.90
9847;DHT22;68671;50.084;8.794;2023-12-28T02:43:22;12.50;99.90
9847;DHT22;68671;50.084;8.794;2023-12-28T02:45:48;12.50;99.90
9847;DHT22;68671;50.084;8.794;2023-12-28T02:48:18;12.50;99.90
9847;DHT22;68671;50.084;8.794;2023-12-28T02:50:45;12.50;99.90
9847;DHT22;68671;50.084;8.794;2023-12-28T02:53:12;12.50;99.90
9847;DHT22;68671;50.084;8.794;2023-12-28T02:55:39;12.50;99.90
9847;DHT22;68671;50.084;8.794;2023-12-28T02:58:06;12.50;99.90
9847;DHT22;68671;50.084;8.794;2023-12-28T03:00:35;12.40;99.90
9847;DHT22;68671;50.084;8.794;2023-12-28T03:03:03;12.40;99.90
9847;DHT22;68671;50.084;8.794;2023-12-28T03:05:30;12.40;99.90
9847;DHT22;68671;50.084;8.794;2023-12-28T03:07:56;12.40;99.90
9847;DHT22;68671;50.084;8.794;2023-12-28T03:10:24;12.40;99.90
9847;DHT22;68671;50.084;8.794;2023-12-28T03:12:51;12.40;99.90
9847;DHT22;68671;50.084;8.794;2023-12-28T03:15:17;12.40;99.90
9847;DHT22;68671;50.084;8.794;2023-12-28T03:17:46;12.40;99.90
9847;DHT22;68671;50.084;8.794;2023-12-28T03:20:13;12.40;99.90
9847;DHT22;68671;50.084;8.794;2023-12-28T03:22:42;12.30;99.90
9847;DHT22;68671;50.084;8.794;2023-12-28T03:25:09;12.40;99.90
9847;DHT22;68671;50.084;8.794;2023-12-28T03:27:39;12.40;99.90
9847;DHT22;68671;50.084;8.794;2023-12-28T03:30:07;12.40;99.90
9847;DHT22;68671;50.084;8.794;2023-12-28T03:32:34;12.40;99.90
9847;DHT22;68671;50.084;8.794;2023-12-28T03:35:03;12.40;99.90
9847;DHT22;68671;50.084;8.794;2023-12-28T03:37:31;12.40;99.90
9847;DHT22;68671;50.084;8.794;2023-12-28T03:39:58;12.40;99.90
9847;DHT22;68671;50.084;8.794;2023-12-28T03:42:24;12.40;99.90
9847;DHT22;68671;50.084;8.794;2023-12-28T03:44:52;12.40;99.90
9847;DHT22;68671;50.084;8.794;2023-12-28T03:47:18;12.40;99.90
9847;DHT22;68671;50.084;8.794;2023-12-28T03:49:45;12.40;99.90
9847;DHT22;68671;50.084;8.794;2023-12-28T03:52:14;12.40;99.90
9847;DHT22;68671;50.084;8.794;2023-12-28T03:54:40;12.40;99.90
9847;DHT22;68671;50.084;8.794;2023-12-28T03:57:07;12.30;99.90
9847;DHT22;68671;50.084;8.794;2023-12-28T03:59:34;12.30;99.90
9847;DHT22;68671;50.084;8.794;2023-12-28T04:02:01;12.40;99.90
9847;DHT22;68671;50.084;8.794;2023-12-28T04:04:28;12.40;99.90
9847;DHT22;68671;50.084;8.794;2023-12-28T04:06:55;12.40;99.90
9847;DHT22;68671;50.084;8.794;2023-12-28T04:09:23;12.40;99.90
9847;DHT22;68671;50.084;8.794;2023-12-28T04:11:50;12.40;99.90
9847;DHT22;68671;50.084;8.794;2023-12-28T04:14:17;12.40;99.90
9847;DHT22;68671;50.084;8.794;2023-12-28T04:16:45;12.40;99.90
9847;DHT22;68671;50.084;8.794;2023-12-28T04:19:11;12.40;99.90
9847;DHT22;68671;50.084;8.794;2023-12-28T04:21:38;12.40;99.90
9847;DHT22;68671;50.084;8.794;2023-12-28T04:24:06;12.40;99.90
9847;DHT22;68671;50.084;8.794;2023-12-28T04:26:34;12.40;99.90
9847;DHT22;68671;50.084;8.794;2023-12-28T04:29:02;12.40;99.90
9847;DHT22;68671;50.084;8.794;2023-12-28T04:31:28;12.40;99.90
9847;DHT22;68671;50.084;8.794;2023-12-28T04:33:55;12.30;99.90
9847;DHT22;68671;50.084;8.794;2023-12-28T04:36:22;12.30;99.90
9847;DHT22;68671;50.084;8.794;2023-12-28T04:38:49;12.30;99.90
9847;DHT22;68671;50.084;8.794;2023-12-28T04:41:16;12.40;99.90
9847;DHT22;68671;50.084;8.794;2023-12-28T04:43:44;12.40;99.90
9847;DHT22;68671;50.084;8.794;2023-12-28T04:46:11;12.40;99.90
9847;DHT22;68671;50.084;8.794;2023-12-28T04:48:38;12.40;99.90
9847;DHT22;68671;50.084;8.794;2023-12-28T04:51:07;12.40;99.90
9847;DHT22;68671;50.084;8.794;2023-12-28T04:53:33;12.40;99.90
9847;DHT22;68671;50.084;8.794;2023-12-28T04:56:00;12.40;99.90
9847;DHT22;68671;50.084;8.794;2023-12-28T04:58:27;12.50;99.90
9847;DHT22;68671;50.084;8.794;2023-12-28T05:00:56;12.50;99.90
9847;DHT22;68671;50.084;8.794;2023-12-28T05:03:23;12.50;99.90
9847;DHT22;68671;50.084;8.794;2023-12-28T05:05:49;12.50;99.90
9847;DHT22;68671;50.084;8.794;2023-12-28T05:08:16;12.50;99.90
9847;DHT22;68671;50.084;8.794;2023-12-28T05:10:43;12.50;99.90
9847;DHT22;68671;50.084;8.794;2023-12-28T05:13:10;12.50;99.90
9847;DHT22;68671;50.084;8.794;2023-12-28T05:15:38;12.50;99.90
9847;DHT22;68671;50.084;8.794;2023-12-28T05:18:06;12.60;99.90
9847;DHT22;68671;50.084;8.794;2023-12-28T05:20:34;12.50;99.90
9847;DHT22;68671;50.084;8.794;2023-12-28T05:23:01;12.50;99.90
9847;DHT22;68671;50.084;8.794;2023-12-28T05:25:31;12.50;99.90
9847;DHT22;68671;50.084;8.794;2023-12-28T05:27:58;12.50;99.90
9847;DHT22;68671;50.084;8.794;2023-12-28T05:30:24;12.50;99.90
9847;DHT22;68671;50.084;8.794;2023-12-28T05:32:51;12.50;99.90
9847;DHT22;68671;50.084;8.794;2023-12-28T05:35:20;12.50;99.90
9847;DHT22;68671;50.084;8.794;2023-12-28T05:37:47;12.50;99.90
9847;DHT22;68671;50.084;8.794;2023-12-28T05:40:14;12.50;99.90
9847;DHT22;68671;50.084;8.794;2023-12-28T05:42:41;12.60;99.90
9847;DHT22;68671;50.084;8.794;2023-12-28T05:45:11;12.60;99.90
9847;DHT22;68671;50.084;8.794;2023-12-28T05:47:38;12.60;99.90
9847;DHT22;68671;50.084;8.794;2023-12-28T05:50:06;12.60;99.90
9847;DHT22;68671;50.084;8.794;2023-12-28T05:52:34;12.60;99.90
9847;DHT22;68671;50.084;8.794;2023-12-28T05:55:01;12.60;99.90
9847;DHT22;68671;50.084;8.794;2023-12-28T05:57:29;12.60;99.90
9847;DHT22;68671;50.084;8.794;2023-12-28T05:59:56;12.60;99.90
9847;DHT22;68671;50.084;8.794;2023-12-28T06:02:23;12.60;99.90
9847;DHT22;68671;50.084;8.794;2023-12-28T06:04:50;12.60;99.90
9847;DHT22;68671;50.084;8.794;2023-12-28T06:07:17;12.60;99.90
9847;DHT22;68671;50.084;8.794;2023-12-28T06:09:46;12.70;99.90
9847;DHT22;68671;50.084;8.794;2023-12-28T06:12:14;12.70;99.90
9847;DHT22;68671;50.084;8.794;2023-12-28T06:14:41;12.60;99.90
9847;DHT22;68671;50.084;8.794;2023-12-28T06:17:08;12.60;99.90
9847;DHT22;68671;50.084;8.794;2023-12-28T06:19:35;12.60;99.90
9847;DHT22;68671;50.084;8.794;2023-12-28T06:22:02;12.60;99.90
9847;DHT22;68671;50.084;8.794;2023-12-28T06:24:29;12.70;99.90
9847;DHT22;68671;50.084;8.794;2023-12-28T06:26:59;12.60;99.90
9847;DHT22;68671;50.084;8.794;2023-12-28T06:29:26;12.60;99.90
9847;DHT22;68671;50.084;8.794;2023-12-28T06:31:53;12.70;99.90
9847;DHT22;68671;50.084;8.794;2023-12-28T06:34:20;12.60;99.90
9847;DHT22;68671;50.084;8.794;2023-12-28T06:36:47;12.60;99.90
9847;DHT22;68671;50.084;8.794;2023-12-28T06:39:14;12.60;99.90
9847;DHT22;68671;50.084;8.794;2023-12-28T06:41:40;12.60;99.90
9847;DHT22;68671;50.084;8.794;2023-12-28T06:44:11;12.60;99.90
9847;DHT22;68671;50.084;8.794;2023-12-28T06:46:39;12.60;99.90
9847;DHT22;68671;50.084;8.794;2023-12-28T06:49:06;12.60;99.90
9847;DHT22;68671;50.084;8.794;2023-12-28T06:51:33;12.50;99.90
9847;DHT22;68671;50.084;8.794;2023-12-28T06:53:59;12.50;99.90
9847;DHT22;68671;50.084;8.794;2023-12-28T06:56:27;12.50;99.90
9847;DHT22;68671;50.084;8.794;2023-12-28T06:58:54;12.50;99.90
9847;DHT22;68671;50.084;8.794;2023-12-28T07:01:22;12.60;99.90
9847;DHT22;68671;50.084;8.794;2023-12-28T07:03:49;12.50;99.90
9847;DHT22;68671;50.084;8.794;2023-12-28T07:06:16;12.40;99.90
9847;DHT22;68671;50.084;8.794;2023-12-28T07:08:45;12.50;99.90
9847;DHT22;68671;50.084;8.794;2023-12-28T07:11:12;12.40;99.90
9847;DHT22;68671;50.084;8.794;2023-12-28T07:13:39;12.40;99.90
9847;DHT22;68671;50.084;8.794;2023-12-28T07:16:06;12.40;99.90
9847;DHT22;68671;50.084;8.794;2023-12-28T07:18:35;12.40;99.90
9847;DHT22;68671;50.084;8.794;2023-12-28T07:21:02;12.40;99.90
9847;DHT22;68671;50.084;8.794;2023-12-28T07:23:32;12.40;99.90
9847;DHT22;68671;50.084;8.794;2023-12-28T07:25:59;12.40;99.90
9847;DHT22;68671;50.084;8.794;2023-12-28T07:28:30;12.40;99.90
9847;DHT22;68671;50.084;8.794;2023-12-28T07:30:57;12.40;99.90
9847;DHT22;68671;50.084;8.794;2023-12-28T07:33:24;12.40;99.90
9847;DHT22;68671;50.084;8.794;2023-12-28T07:35:55;12.40;99.90
9847;DHT22;68671;50.084;8.794;2023-12-28T07:38:25;12.30;99.90
9847;DHT22;68671;50.084;8.794;2023-12-28T07:40:52;12.30;99.90
9847;DHT22;68671;50.084;8.794;2023-12-28T07:43:19;12.30;99.90
9847;DHT22;68671;50.084;8.794;2023-12-28T07:45:46;12.40;99.90
9847;DHT22;68671;50.084;8.794;2023-12-28T07:48:15;12.40;99.90
9847;DHT22;68671;50.084;8.794;2023-12-28T07:50:42;12.40;99.90
9847;DHT22;68671;50.084;8.794;2023-12-28T07:53:10;12.40;99.90
9847;DHT22;68671;50.084;8.794;2023-12-28T07:55:37;12.50;99.90
9847;DHT22;68671;50.084;8.794;2023-12-28T07:58:04;12.50;99.90
9847;DHT22;68671;50.084;8.794;2023-12-28T08:00:31;12.50;99.90
9847;DHT22;68671;50.084;8.794;2023-12-28T08:02:58;12.50;99.90
9847;DHT22;68671;50.084;8.794;2023-12-28T08:05:25;12.50;99.90
9847;DHT22;68671;50.084;8.794;2023-12-28T08:07:52;12.60;99.90
9847;DHT22;68671;50.084;8.794;2023-12-28T08:10:20;12.60;99.90
9847;DHT22;68671;50.084;8.794;2023-12-28T08:12:47;12.60;99.90
9847;DHT22;68671;50.084;8.794;2023-12-28T08:15:14;12.60;99.90
9847;DHT22;68671;50.084;8.794;2023-12-28T08:17:40;12.60;99.90
9847;DHT22;68671;50.084;8.794;2023-12-28T08:20:08;12.60;99.90
9847;DHT22;68671;50.084;8.794;2023-12-28T08:22:35;12.70;99.90
9847;DHT22;68671;50.084;8.794;2023-12-28T08:25:02;12.70;99.90
9847;DHT22;68671;50.084;8.794;2023-12-28T08:27:31;12.80;99.90
9847;DHT22;68671;50.084;8.794;2023-12-28T08:29:58;12.80;99.90
9847;DHT22;68671;50.084;8.794;2023-12-28T08:32:25;12.70;99.90
9847;DHT22;68671;50.084;8.794;2023-12-28T08:34:53;12.80;99.90
9847;DHT22;68671;50.084;8.794;2023-12-28T08:37:19;12.80;99.90
9847;DHT22;68671;50.084;8.794;2023-12-28T08:39:49;12.80;99.90
9847;DHT22;68671;50.084;8.794;2023-12-28T08:42:19;12.80;99.90
9847;DHT22;68671;50.084;8.794;2023-12-28T08:44:47;12.90;99.90
9847;DHT22;68671;50.084;8.794;2023-12-28T08:47:14;12.90;99.90
9847;DHT22;68671;50.084;8.794;2023-12-28T08:49:41;12.90;99.90
9847;DHT22;68671;50.084;8.794;2023-12-28T08:52:08;13.00;99.90
9847;DHT22;68671;50.084;8.794;2023-12-28T08:54:38;13.00;99.90
9847;DHT22;68671;50.084;8.794;2023-12-28T08:57:09;13.00;99.90
9847;DHT22;68671;50.084;8.794;2023-12-28T08:59:36;13.00;99.90
9847;DHT22;68671;50.084;8.794;2023-12-28T09:02:04;13.00;99.90
9847;DHT22;68671;50.084;8.794;2023-12-28T09:04:32;13.10;99.90
9847;DHT22;68671;50.084;8.794;2023-12-28T09:06:59;13.10;99.90
9847;DHT22;68671;50.084;8.794;2023-12-28T09:09:26;13.10;99.90
9847;DHT22;68671;50.084;8.794;2023-12-28T09:11:53;13.10;99.90
9847;DHT22;68671;50.084;8.794;2023-12-28T09:14:21;13.20;99.90
9847;DHT22;68671;50.084;8.794;2023-12-28T09:16:48;13.20;99.90
9847;DHT22;68671;50.084;8.794;2023-12-28T09:19:16;13.20;99.90
9847;DHT22;68671;50.084;8.794;2023-12-28T09:21:43;13.20;99.90
9847;DHT22;68671;50.084;8.794;2023-12-28T09:24:10;13.30;99.90
9847;DHT22;68671;50.084;8.794;2023-12-28T09:26:37;13.30;99.90
9847;DHT22;68671;50.084;8.794;2023-12-28T09:29:05;13.30;99.90
9847;DHT22;68671;50.084;8.794;2023-12-28T09:31:34;13.30;99.90
9847;DHT22;68671;50.084;8.794;2023-12-28T09:34:01;13.40;99.90
9847;DHT22;68671;50.084;8.794;2023-12-28T09:36:31;13.40;99.90
9847;DHT22;68671;50.084;8.794;2023-12-28T09:38:58;13.40;99.90
9847;DHT22;68671;50.084;8.794;2023-12-28T09:41:27;13.40;99.90
9847;DHT22;68671;50.084;8.794;2023-12-28T09:44:00;13.40;99.90
9847;DHT22;68671;50.084;8.794;2023-12-28T09:46:31;13.50;99.90
9847;DHT22;68671;50.084;8.794;2023-12-28T09:48:58;13.50;99.90
9847;DHT22;68671;50.084;8.794;2023-12-28T09:51:25;13.50;99.90
9847;DHT22;68671;50.084;8.794;2023-12-28T09:53:54;13.60;99.90
9847;DHT22;68671;50.084;8.794;2023-12-28T09:56:21;13.60;99.90
9847;DHT22;68671;50.084;8.794;2023-12-28T09:58:49;13.60;99.90
9847;DHT22;68671;50.084;8.794;2023-12-28T10:01:17;13.60;99.90
9847;DHT22;68671;50.084;8.794;2023-12-28T10:03:44;13.60;99.90
9847;DHT22;68671;50.084;8.794;2023-12-28T10:06:11;13.60;99.90
9847;DHT22;68671;50.084;8.794;2023-12-28T10:08:45;13.70;99.90
9847;DHT22;68671;50.084;8.794;2023-12-28T10:11:16;13.70;99.90
9847;DHT22;68671;50.084;8.794;2023-12-28T10:13:43;13.60;99.90
9847;DHT22;68671;50.084;8.794;2023-12-28T10:16:12;13.70;99.90
9847;DHT22;68671;50.084;8.794;2023-12-28T10:18:41;13.70;99.90
9847;DHT22;68671;50.084;8.794;2023-12-28T10:21:10;13.70;99.90
9847;DHT22;68671;50.084;8.794;2023-12-28T10:23:37;13.70;99.90
9847;DHT22;68671;50.084;8.794;2023-12-28T10:26:05;13.80;99.90
9847;DHT22;68671;50.084;8.794;2023-12-28T10:28:34;13.80;99.90
9847;DHT22;68671;50.084;8.794;2023-12-28T10:31:03;13.80;99.90
9847;DHT22;68671;50.084;8.794;2023-12-28T10:33:34;13.80;99.90
9847;DHT22;68671;50.084;8.794;2023-12-28T10:36:06;13.80;99.90
9847;DHT22;68671;50.084;8.794;2023-12-28T10:38:34;13.80;99.90
9847;DHT22;68671;50.084;8.794;2023-12-28T10:41:03;13.80;99.90
9847;DHT22;68671;50.084;8.794;2023-12-28T10:43:37;13.80;99.90
9847;DHT22;68671;50.084;8.794;2023-12-28T10:46:20;13.90;99.90
9847;DHT22;68671;50.084;8.794;2023-12-28T10:48:50;13.90;99.90
9847;DHT22;68671;50.084;8.794;2023-12-28T10:51:21;13.90;99.90
9847;DHT22;68671;50.084;8.794;2023-12-28T10:54:03;13.90;99.90
9847;DHT22;68671;50.084;8.794;2023-12-28T10:56:36;13.90;99.90
9847;DHT22;68671;50.084;8.794;2023-12-28T10:59:14;13.80;99.90
9847;DHT22;68671;50.084;8.794;2023-12-28T11:01:48;13.90;99.90
9847;DHT22;68671;50.084;8.794;2023-12-28T11:04:21;13.90;99.90
9847;DHT22;68671;50.084;8.794;2023-12-28T11:06:54;13.90;99.90
9847;DHT22;68671;50.084;8.794;2023-12-28T11:09:22;13.90;99.90
9847;DHT22;68671;50.084;8.794;2023-12-28T11:11:51;13.90;99.90
9847;DHT22;68671;50.084;8.794;2023-12-28T11:14:22;13.90;99.90
9847;DHT22;68671;50.084;8.794;2023-12-28T11:16:50;13.90;99.90
9847;DHT22;68671;50.084;8.794;2023-12-28T11:19:17;13.90;99.90
9847;DHT22;68671;50.084;8.794;2023-12-28T11:21:44;13.90;99.90
9847;DHT22;68671;50.084;8.794;2023-12-28T11:24:11;14.00;99.90
9847;DHT22;68671;50.084;8.794;2023-12-28T11:26:39;13.90;99.90
9847;DHT22;68671;50.084;8.794;2023-12-28T11:29:09;14.00;99.90
9847;DHT22;68671;50.084;8.794;2023-12-28T11:31:38;14.00;99.90
9847;DHT22;68671;50.084;8.794;2023-12-28T11:34:05;14.00;99.90
9847;DHT22;68671;50.084;8.794;2023-12-28T11:36:35;14.00;99.90
9847;DHT22;68671;50.084;8.794;2023-12-28T11:39:06;14.00;99.90
9847;DHT22;68671;50.084;8.794;2023-12-28T11:41:35;14.00;99.90
9847;DHT22;68671;50.084;8.794;2023-12-28T11:44:04;14.10;99.90
9847;DHT22;68671;50.084;8.794;2023-12-28T11:46:31;14.10;99.90
9847;DHT22;68671;50.084;8.794;2023-12-28T11:49:06;14.10;99.90
9847;DHT22;68671;50.084;8.794;2023-12-28T11:51:35;14.10;99.90
9847;DHT22;68671;50.084;8.794;2023-12-28T11:54:03;14.10;99.90
9847;DHT22;68671;50.084;8.794;2023-12-28T11:56:30;14.20;99.90
9847;DHT22;68671;50.084;8.794;2023-12-28T11:59:01;14.20;99.90
9847;DHT22;68671;50.084;8.794;2023-12-28T12:01:28;14.20;99.90
9847;DHT22;68671;50.084;8.794;2023-12-28T12:03:57;14.30;99.90
9847;DHT22;68671;50.084;8.794;2023-12-28T12:06:27;14.30;99.90
9847;DHT22;68671;50.084;8.794;2023-12-28T12:08:55;14.30;99.90
9847;DHT22;68671;50.084;8.794;2023-12-28T12:11:24;14.30;99.90
9847;DHT22;68671;50.084;8.794;2023-12-28T12:13:53;14.30;99.90
9847;DHT22;68671;50.084;8.794;2023-12-28T12:16:20;14.30;99.90
9847;DHT22;68671;50.084;8.794;2023-12-28T12:18:48;14.30;99.90
9847;DHT22;68671;50.084;8.794;2023-12-28T12:21:15;14.30;99.90
9847;DHT22;68671;50.084;8.794;2023-12-28T12:23:44;14.30;99.90
9847;DHT22;68671;50.084;8.794;2023-12-28T12:26:11;14.30;99.90
9847;DHT22;68671;50.084;8.794;2023-12-28T12:28:39;14.30;99.90
9847;DHT22;68671;50.084;8.794;2023-12-28T12:31:05;14.30;99.90
9847;DHT22;68671;50.084;8.794;2023-12-28T12:33:33;14.30;99.90
9847;DHT22;68671;50.084;8.794;2023-12-28T12:36:00;14.30;99.90
9847;DHT22;68671;50.084;8.794;2023-12-28T12:38:28;14.20;99.90
9847;DHT22;68671;50.084;8.794;2023-12-28T12:40:57;14.30;99.90
9847;DHT22;68671;50.084;8.794;2023-12-28T12:43:24;14.30;99.90
9847;DHT22;68671;50.084;8.794;2023-12-28T12:45:52;14.30;99.90
9847;DHT22;68671;50.084;8.794;2023-12-28T12:48:19;14.30;99.90
9847;DHT22;68671;50.084;8.794;2023-12-28T12:50:46;14.30;99.90
9847;DHT22;68671;50.084;8.794;2023-12-28T12:53:13;14.30;99.90
9847;DHT22;68671;50.084;8.794;2023-12-28T12:55:40;14.30;99.90
9847;DHT22;68671;50.084;8.794;2023-12-28T12:58:09;14.30;99.90
9847;DHT22;68671;50.084;8.794;2023-12-28T13:00:38;14.30;99.90
9847;DHT22;68671;50.084;8.794;2023-12-28T13:03:08;14.30;99.90
9847;DHT22;68671;50.084;8.794;2023-12-28T13:05:37;14.30;99.90
9847;DHT22;68671;50.084;8.794;2023-12-28T13:08:05;14.30;99.90
9847;DHT22;68671;50.084;8.794;2023-12-28T13:10:32;14.30;99.90
9847;DHT22;68671;50.084;8.794;2023-12-28T13:13:05;14.40;99.90
9847;DHT22;68671;50.084;8.794;2023-12-28T13:15:36;14.30;99.90
9847;DHT22;68671;50.084;8.794;2023-12-28T13:18:03;14.30;99.90
9847;DHT22;68671;50.084;8.794;2023-12-28T13:20:30;14.40;99.90
9847;DHT22;68671;50.084;8.794;2023-12-28T13:22:57;14.30;99.90
9847;DHT22;68671;50.084;8.794;2023-12-28T13:25:24;14.40;99.90
9847;DHT22;68671;50.084;8.794;2023-12-28T13:27:54;14.40;99.90
9847;DHT22;68671;50.084;8.794;2023-12-28T13:30:21;14.40;99.90
9847;DHT22;68671;50.084;8.794;2023-12-28T13:32:50;14.40;99.90
9847;DHT22;68671;50.084;8.794;2023-12-28T13:35:17;14.40;99.90
9847;DHT22;68671;50.084;8.794;2023-12-28T13:37:44;14.40;99.90
9847;DHT22;68671;50.084;8.794;2023-12-28T13:40:11;14.40;99.90
9847;DHT22;68671;50.084;8.794;2023-12-28T13:42:42;14.40;99.90
9847;DHT22;68671;50.084;8.794;2023-12-28T13:45:10;14.40;99.90
9847;DHT22;68671;50.084;8.794;2023-12-28T13:47:37;14.40;99.90
9847;DHT22;68671;50.084;8.794;2023-12-28T13:50:07;14.40;99.90
9847;DHT22;68671;50.084;8.794;2023-12-28T13:52:34;14.40;99.90
9847;DHT22;68671;50.084;8.794;2023-12-28T13:55:01;14.40;99.90
9847;DHT22;68671;50.084;8.794;2023-12-28T13:57:31;14.40;99.90
9847;DHT22;68671;50.084;8.794;2023-12-28T13:59:58;14.40;99.90
9847;DHT22;68671;50.084;8.794;2023-12-28T14:02:26;14.40;99.90
9847;DHT22;68671;50.084;8.794;2023-12-28T14:04:56;14.40;99.90
9847;DHT22;68671;50.084;8.794;2023-12-28T14:07:24;14.40;99.90
9847;DHT22;68671;50.084;8.794;2023-12-28T14:09:52;14.30;99.90
9847;DHT22;68671;50.084;8.794;2023-12-28T14:12:19;14.30;99.90
9847;DHT22;68671;50.084;8.794;2023-12-28T14:14:46;14.30;99.90
9847;DHT22;68671;50.084;8.794;2023-12-28T14:17:13;14.30;99.90
9847;DHT22;68671;50.084;8.794;2023-12-28T14:19:40;14.30;99.90
9847;DHT22;68671;50.084;8.794;2023-12-28T14:22:08;14.30;99.90
9847;DHT22;68671;50.084;8.794;2023-12-28T14:24:37;14.30;99.90
9847;DHT22;68671;50.084;8.794;2023-12-28T14:27:05;14.30;99.90
9847;DHT22;68671;50.084;8.794;2023-12-28T14:29:40;14.30;99.90
9847;DHT22;68671;50.084;8.794;2023-12-28T14:32:08;14.30;99.90
9847;DHT22;68671;50.084;8.794;2023-12-28T14:34:35;14.30;99.90
9847;DHT22;68671;50.084;8.794;2023-12-28T14:37:03;14.30;99.90
9847;DHT22;68671;50.084;8.794;2023-12-28T14:39:30;14.30;99.90
9847;DHT22;68671;50.084;8.794;2023-12-28T14:41:59;14.30;99.90
9847;DHT22;68671;50.084;8.794;2023-12-28T14:44:28;14.30;99.90
9847;DHT22;68671;50.084;8.794;2023-12-28T14:46:55;14.30;99.90
9847;DHT22;68671;50.084;8.794;2023-12-28T14:49:22;14.30;99.90
9847;DHT22;68671;50.084;8.794;2023-12-28T14:51:50;14.30;99.90
9847;DHT22;68671;50.084;8.794;2023-12-28T14:54:19;14.20;99.90
9847;DHT22;68671;50.084;8.794;2023-12-28T14:56:46;14.20;99.90
9847;DHT22;68671;50.084;8.794;2023-12-28T14:59:15;14.20;99.90
9847;DHT22;68671;50.084;8.794;2023-12-28T15:01:42;14.10;99.90
9847;DHT22;68671;50.084;8.794;2023-12-28T15:04:09;14.10;99.90
9847;DHT22;68671;50.084;8.794;2023-12-28T15:06:36;14.00;99.90
9847;DHT22;68671;50.084;8.794;2023-12-28T15:09:03;14.00;99.90
9847;DHT22;68671;50.084;8.794;2023-12-28T15:11:30;14.00;99.90
9847;DHT22;68671;50.084;8.794;2023-12-28T15:13:58;14.00;99.90
9847;DHT22;68671;50.084;8.794;2023-12-28T15:16:27;13.90;99.90
9847;DHT22;68671;50.084;8.794;2023-12-28T15:18:56;13.90;99.90
9847;DHT22;68671;50.084;8.794;2023-12-28T15:21:24;13.90;99.90
9847;DHT22;68671;50.084;8.794;2023-12-28T15:23:52;13.90;99.90
9847;DHT22;68671;50.084;8.794;2023-12-28T15:26:22;13.90;99.90
9847;DHT22;68671;50.084;8.794;2023-12-28T15:28:50;13.90;99.90
9847;DHT22;68671;50.084;8.794;2023-12-28T15:31:17;13.80;99.90
9847;DHT22;68671;50.084;8.794;2023-12-28T15:33:45;13.80;99.90
9847;DHT22;68671;50.084;8.794;2023-12-28T15:36:13;13.70;99.90
9847;DHT22;68671;50.084;8.794;2023-12-28T15:38:41;13.70;99.90
9847;DHT22;68671;50.084;8.794;2023-12-28T15:41:08;13.70;99.90
9847;DHT22;68671;50.084;8.794;2023-12-28T15:43:35;13.60;99.90
9847;DHT22;68671;50.084;8.794;2023-12-28T15:46:02;13.60;99.90
9847;DHT22;68671;50.084;8.794;2023-12-28T15:48:30;13.60;99.90